Accueil
METAR-TAF:

METAR-TAF

Aéroports :

Wunstorf, Allemagne

latitude: 52-27N, longitude: 009-26E, altitude: 57 m

Observation

Le bulletin a été fait il y a 1 heure et 12 minutes, à 01:20 UTC
Vent 10 kt de est
Température 0°C
Humidité 93%
Pression 1024 hPa
Visibilité: 8000 m
Nuages épars à une hauteur de 700 ft
Nuages fragmentés à une hauteur de 1200 ft

METAR: ETNW 030120Z 09010KT 8000 SCT007 BKN012 00/M01 Q1024 GRN GRN TEMPO YLO

Heure: 03:32 (02:32 UTC)

Prévision

Le bulletin a été fait il y a 3 heures et 28 minutes, à 23:04 UTC
Prévision valable du 03 à 00 UTC au 03 à 24 UTC
Vent 8 kt de est/nord-est
Visibilité: 8000 m
Quelques nuages à une hauteur de 600 ft
Nuages fragmentés à une hauteur de 1000 ft
Temporairement
du 03 à 00 UTC au 03 à 24 UTC
Vent 10 kt de est
Visibilité: 3000 m
Ciel couvert à une hauteur de 600 ft
neige faible

TAF: ETNW 022304Z 0300/0324 07008KT 8000 NSW FEW006 BKN010 TEMPO 0300/0324 08010KT 3000 -SN OVC006 BY ETGL

Observations et prévisions météorologiques de plus de 4000 aéroports (messages METAR et TAF).

Les stations disponibles sont représentées par des disques jaunes et rouges sur la carte.

Passer la souris dessus pour voir le nom de la station.

Cliquer dessus pour voir les observations et prévisions météorologiques.

Pour changer de carte: cliquez sur les boutons verts avec une croix noire pour zoomer, sur le bouton vert avec un tiret pour effectuer un zoom arrière, ou sur les flèches vertes pour les cartes adjacentes.


METAR-TAF: